Latest Weather Observations for Padthaway

IDS60801

Issued at 6:21 am CST Tuesday 24 September 2019 (issued every 10 minutes, with the page automatically refreshed every 10 minutes)

About weather observations | Map of weather stations | Latest weather observations for SA | Other Formats
Station Details ID: 026100 Name: PADTHAWAY SOUTH Lat: -36.65 Lon: 140.52 Height: 37.0 m
Data from the previous 72 hours. | See also: Recent months at Padthaway
Date/Time
CST
Temp
°C
App
Temp
°C
Dew
Point
°C
Rel
Hum
%
Delta-T
°C
Wind Press
QNH
hPa
Press
MSL
hPa
Rain since
9am
mm
Dir  Spd
km/h
Gust
km/h
Spd
kts
Gust
kts
24/06:00am 4.2 1.7 3.9 98 0.1 NNW 6 7 3 4 - - 0.0
24/05:30am 4.3 3.0 4.0 98 0.1 CALM 0 6 0 3 - - 0.0
24/05:00am 4.1 1.6 3.8 98 0.1 NNW 6 6 3 3 - - 0.0
24/04:30am 3.8 1.0 3.4 97 0.2 NNW 7 9 4 5 - - 0.0
24/04:00am 2.8 1.2 2.2 96 0.2 CALM 0 0 0 0 - - 0.0
24/03:30am 2.9 1.3 2.2 95 0.3 CALM 0 0 0 0 - - 0.0
24/03:00am 2.8 1.1 1.9 94 0.4 CALM 0 0 0 0 - - 0.0
24/02:30am 3.8 2.3 3.1 95 0.3 CALM 0 0 0 0 - - 0.0
24/02:00am 3.9 1.3 3.0 94 0.4 N 6 7 3 4 - - 0.0
24/01:30am 4.7 2.0 3.8 94 0.4 N 7 7 4 4 - - 0.0
24/01:00am 5.5 2.6 4.8 95 0.3 N 9 11 5 6 - - 0.0
24/12:30am 6.1 3.8 5.5 96 0.3 N 7 9 4 5 - - 0.0
24/12:00am 5.7 3.2 5.0 95 0.3 N 7 9 4 5 - - 0.0
 
Date/Time
CST
Temp
°C
App
Temp
°C
Dew
Point
°C
Rel
Hum
%
Delta-T
°C
Wind Press
QNH
hPa
Press
MSL
hPa
Rain since
9am
mm
Dir  Spd
km/h
Gust
km/h
Spd
kts
Gust
kts
23/11:30pm 6.2 4.4 5.6 96 0.3 N 4 7 2 4 - - 0.0
23/11:00pm 5.2 2.8 4.5 95 0.3 N 6 9 3 5 - - 0.0
23/10:30pm 4.3 2.9 3.3 93 0.4 CALM 0 0 0 0 - - 0.0
23/10:00pm 4.8 3.4 3.5 91 0.5 CALM 0 0 0 0 - - 0.0
23/09:30pm 5.6 3.0 4.2 91 0.6 N 7 9 4 5 - - 0.0
23/09:00pm 6.0 4.0 4.2 88 0.8 N 4 7 2 4 - - 0.0
23/08:30pm 6.8 4.3 4.6 86 1.0 N 7 9 4 5 - - 0.0
23/08:00pm 7.1 4.2 4.8 85 1.0 NNW 9 11 5 6 - - 0.0
23/07:30pm 7.9 5.6 4.8 81 1.4 WNW 6 7 3 4 - - 0.0
23/07:00pm 8.4 5.9 4.6 77 1.7 W 7 9 4 5 - - 0.0
23/06:30pm 9.5 6.6 4.7 72 2.1 W 9 13 5 7 - - 0.0
23/06:00pm 10.3 7.1 5.1 70 2.4 WSW 11 17 6 9 - - 0.0
23/05:30pm 12.0 8.7 6.3 68 2.7 WSW 13 19 7 10 - - 0.0
23/05:00pm 13.4 8.8 5.6 59 3.7 W 19 26 10 14 - - 0.0
23/04:30pm 12.7 9.4 6.5 66 3.0 WSW 13 19 7 10 - - 0.0
23/04:00pm 13.6 9.7 7.2 65 3.1 WSW 17 22 9 12 - - 0.0
23/03:30pm 14.3 10.3 6.6 60 3.7 WSW 17 22 9 12 - - 0.0
23/03:00pm 13.9 9.3 5.5 57 4.0 WSW 19 26 10 14 - - 0.0
23/02:30pm 13.4 9.3 6.3 62 3.4 WSW 17 24 9 13 - - 0.0
23/02:00pm 13.9 9.3 6.3 60 3.6 WSW 20 32 11 17 - - 0.0
23/01:30pm 14.5 9.9 5.8 56 4.1 WSW 19 28 10 15 - - 0.0
23/01:00pm 14.6 9.6 6.4 58 4.0 WSW 22 35 12 19 - - 0.0
23/12:30pm 14.3 8.9 6.4 59 3.8 W 24 33 13 18 - - 0.0
23/12:00pm 13.6 8.0 7.2 65 3.1 WSW 26 39 14 21 - - 0.0
23/11:30am 13.7 9.1 5.8 59 3.7 W 19 28 10 15 - - 0.0
23/11:00am 13.4 9.6 7.4 67 2.9 WSW 17 22 9 12 - - 0.0
23/10:30am 13.4 8.6 7.4 67 2.9 SW 22 33 12 18 - - 0.0
23/10:00am 12.2 9.1 7.1 71 2.5 WSW 13 24 7 13 - - 0.0
23/09:30am 11.3 7.1 8.3 82 1.5 WSW 20 33 11 18 - - 0.0
23/09:00am 12.0 7.8 7.5 74 2.2 WSW 19 26 10 14 - - -
23/08:30am 11.1 7.6 7.4 78 1.8 WSW 15 22 8 12 - - -
23/08:00am 10.1 7.0 7.3 83 1.3 SW 13 22 7 12 - - -
23/07:30am 9.3 7.4 7.6 89 0.8 W 7 11 4 6 - - -
23/07:00am 8.2 5.3 6.5 89 0.8 W 11 15 6 8 - - -
23/06:30am 7.1 3.7 6.0 93 0.5 W 13 17 7 9 - - -
23/06:00am 6.8 3.8 6.1 95 0.3 W 11 15 6 8 - - -
23/05:30am 5.9 2.7 4.9 93 0.4 WNW 11 13 6 7 - - -
23/05:00am 6.3 3.1 5.3 93 0.4 W 11 15 6 8 - - -
23/04:30am 6.2 3.0 5.0 92 0.5 W 11 15 6 8 - - -
23/04:00am 6.4 3.6 5.2 92 0.5 WNW 9 13 5 7 - - -
23/03:30am 6.5 3.8 5.5 93 0.4 NNW 9 11 5 6 - - -
23/03:00am 6.4 3.7 5.4 93 0.4 NNW 9 11 5 6 - - 2.0
23/02:30am 7.1 4.8 5.7 91 0.6 NW 7 11 4 6 - - -
23/02:00am 7.0 4.7 5.6 91 0.6 NW 7 13 4 7 - - -
23/01:30am 6.7 3.5 5.0 89 0.7 NW 11 15 6 8 - - -
23/01:00am 7.0 3.8 5.3 89 0.8 WNW 11 15 6 8 - - -
23/12:30am 7.4 4.1 6.5 94 0.4 NW 13 19 7 10 - - -
23/12:00am 7.6 4.6 5.9 89 0.8 NW 11 15 6 8 - - -
 
Date/Time
CST
Temp
°C
App
Temp
°C
Dew
Point
°C
Rel
Hum
%
Delta-T
°C
Wind Press
QNH
hPa
Press
MSL
hPa
Rain since
9am
mm
Dir  Spd
km/h
Gust
km/h
Spd
kts
Gust
kts
22/11:30pm 7.7 4.7 6.0 89 0.8 NW 11 15 6 8 - - -
22/11:00pm 7.8 3.9 5.3 84 1.1 NW 15 19 8 10 - - -
22/10:30pm 8.3 4.6 6.1 86 1.0 NNW 15 20 8 11 - - -
22/10:00pm 8.7 4.5 7.5 92 0.6 NNW 19 26 10 14 - - -
22/09:30pm 8.6 4.8 7.4 92 0.6 NNW 17 22 9 12 - - -
22/09:00pm 8.5 4.6 7.1 91 0.7 NNW 17 22 9 12 - - 1.0
22/08:30pm 8.6 4.6 6.6 87 0.9 NNW 17 22 9 12 - - -
22/08:00pm 8.7 5.5 6.7 87 0.9 NNW 13 19 7 10 - - -
22/07:30pm 8.7 5.1 6.8 88 0.9 NNW 15 19 8 10 - - -
22/07:00pm 8.9 5.0 6.9 87 0.9 NNW 17 20 9 11 - - -
22/06:30pm 9.2 5.3 7.0 86 1.0 NW 17 24 9 13 - - -
22/06:00pm 9.8 5.7 6.2 78 1.7 NW 17 22 9 12 - - -
22/05:30pm 9.9 6.4 5.5 74 2.0 WNW 13 20 7 11 - - -
22/05:00pm 10.0 5.9 6.0 76 1.8 W 17 22 9 12 - - -
22/04:30pm 10.6 5.7 6.9 78 1.8 W 22 35 12 19 - - -
22/04:00pm 10.7 5.4 6.6 76 1.9 W 24 37 13 20 - - -
22/03:30pm 13.4 8.0 6.3 62 3.4 WNW 24 37 13 20 - - -
22/03:00pm 14.3 9.6 5.9 57 4.0 WNW 20 30 11 16 - - -
22/02:30pm 14.1 8.6 6.0 58 3.9 NW 24 41 13 22 - - -
22/02:00pm 13.2 8.2 6.5 64 3.2 NW 22 32 12 17 - - -
22/01:30pm 13.4 7.8 5.3 58 3.8 NW 24 33 13 18 - - -
22/01:00pm 13.5 7.2 5.7 59 3.7 NW 28 39 15 21 - - -
22/12:00pm 13.2 7.8 6.3 63 3.3 NW 24 32 13 17 - - 0.0
22/11:30am 12.4 7.1 6.7 68 2.7 NW 24 35 13 19 - - 0.0
22/11:00am 12.1 6.8 6.8 70 2.5 NNW 24 32 13 17 - - 0.0
22/10:30am 11.1 6.5 6.6 74 2.1 NNW 20 28 11 15 - - 0.0
22/10:00am 10.6 6.2 6.4 75 2.0 NNW 19 28 10 15 - - 0.0
22/09:30am 9.8 5.4 6.5 80 1.5 NNW 19 26 10 14 - - 0.0
22/09:00am 9.5 5.5 6.6 82 1.4 NW 17 22 9 12 - - 3.8
22/08:30am 9.9 5.4 6.1 77 1.8 NNW 19 26 10 14 - - 3.8
22/08:00am 9.2 5.1 6.3 82 1.3 N 17 20 9 11 - - 3.8
22/07:30am 8.0 4.6 6.1 88 0.9 N 13 19 7 10 - - 3.8
22/07:00am 6.8 4.1 5.6 92 0.5 N 9 15 5 8 - - 3.8
22/06:30am 6.4 3.7 5.7 95 0.3 NNW 9 11 5 6 - - 3.8
22/06:00am 5.9 3.1 5.0 94 0.4 N 9 11 5 6 - - 3.8
22/05:30am 6.5 3.4 5.6 94 0.4 N 11 17 6 9 - - 3.8
22/05:00am 6.4 2.9 5.4 93 0.4 N 13 15 7 8 - - 3.4
22/04:30am 6.3 3.5 5.3 93 0.4 N 9 13 5 7 - - 3.4
22/04:00am 6.0 2.7 4.8 92 0.5 N 11 15 6 8 - - 3.4
22/03:30am 6.5 3.3 5.3 92 0.5 N 11 15 6 8 - - 3.4
22/03:00am 6.6 3.5 5.6 93 0.4 N 11 13 6 7 - - 3.4
22/02:30am 6.4 4.0 5.4 93 0.4 WNW 7 11 4 6 - - 3.4
22/02:00am 7.0 3.6 5.8 92 0.5 NNW 13 17 7 9 - - 3.4
22/01:30am 7.3 3.6 6.1 92 0.5 NNW 15 17 8 9 - - 3.4
22/01:00am 7.0 4.4 6.1 94 0.4 NNW 9 11 5 6 - - 3.4
22/12:30am 7.4 4.1 6.2 92 0.5 NNW 13 15 7 8 - - 3.4
22/12:00am 7.3 4.7 5.9 91 0.6 N 9 11 5 6 - - 3.2
 
Date/Time
CST
Temp
°C
App
Temp
°C
Dew
Point
°C
Rel
Hum
%
Delta-T
°C
Wind Press
QNH
hPa
Press
MSL
hPa
Rain since
9am
mm
Dir  Spd
km/h
Gust
km/h
Spd
kts
Gust
kts
21/11:30pm 7.4 3.9 5.5 88 0.8 NNW 13 17 7 9 - - 3.2
21/11:00pm 6.5 4.0 5.0 90 0.7 NNW 7 9 4 5 - - 3.2
21/10:30pm 5.9 3.4 4.5 91 0.6 N 7 9 4 5 - - 3.2
21/10:00pm 5.3 2.2 3.8 90 0.6 N 9 11 5 6 - - 3.2
21/09:30pm 5.6 2.6 3.9 89 0.7 NNW 9 9 5 5 - - 3.2
21/09:00pm 6.2 3.5 3.7 84 1.1 NNW 7 9 4 5 - - 3.2
21/08:30pm 6.6 3.5 3.6 81 1.3 NW 9 11 5 6 - - 3.2
21/08:00pm 7.1 4.1 3.9 80 1.4 WNW 9 15 5 8 - - 3.2
21/07:30pm 7.2 3.7 3.6 78 1.5 WNW 11 19 6 10 - - 3.2
21/07:00pm 7.4 4.3 3.8 78 1.5 WNW 9 11 5 6 - - 3.2
21/06:30pm 8.3 4.9 3.9 74 1.9 WNW 11 13 6 7 - - 3.2
21/06:00pm 9.8 5.9 3.5 65 2.7 W 13 20 7 11 - - 3.2
21/05:30pm 11.1 6.5 3.9 61 3.2 W 17 26 9 14 - - 3.2
21/05:00pm 12.1 7.8 5.3 63 3.1 WSW 17 32 9 17 - - 3.2
21/04:30pm 12.5 7.6 5.2 61 3.4 WSW 20 33 11 18 - - 3.0
21/04:00pm 12.1 6.9 5.5 64 3.1 WSW 22 35 12 19 - - 3.0
21/03:30pm 13.1 8.2 6.7 65 3.1 WSW 22 30 12 16 - - 3.0
21/03:00pm 13.2 8.8 8.9 75 2.2 WSW 22 35 12 19 - - 3.0
21/02:30pm 12.4 8.5 8.7 78 1.8 WSW 19 28 10 15 - - 3.0
21/02:00pm 11.6 8.1 8.6 82 1.5 WSW 17 30 9 16 - - 3.0
21/01:30pm 12.8 9.0 8.9 77 2.0 WSW 19 28 10 15 - - 2.8
21/01:00pm 11.0 7.0 8.4 84 1.3 SW 19 33 10 18 - - 2.8
21/12:30pm 10.4 5.9 8.5 88 0.9 WSW 22 32 12 17 - - 2.4
21/12:00pm 12.0 8.7 9.6 85 1.2 W 17 26 9 14 - - 1.6
21/11:30am 10.3 6.7 8.4 88 0.9 W 17 24 9 13 - - 1.2
21/11:00am 12.3 9.3 9.3 82 1.5 WSW 15 20 8 11 - - 0.6
21/10:30am 12.6 9.6 9.1 79 1.8 W 15 22 8 12 - - 0.4
21/10:00am 11.7 9.1 9.4 86 1.2 WNW 13 19 7 10 - - 0.4
21/09:30am 10.6 7.5 8.9 89 0.8 WNW 15 20 8 11 - - 0.2
21/09:00am 10.3 8.1 9.4 94 0.4 WSW 11 17 6 9 - - 14.2
21/08:30am 10.2 7.2 9.3 94 0.4 W 15 22 8 12 - - 14.0
21/08:00am 10.2 6.7 8.8 91 0.7 W 17 26 9 14 - - 14.0
21/07:30am 10.1 7.0 9.0 93 0.5 W 15 22 8 12 - - 14.0
21/07:00am 9.3 6.5 8.4 94 0.4 W 13 20 7 11 - - 14.0
21/06:30am 9.1 5.8 8.2 94 0.4 W 15 20 8 11 - - 14.0

Other formats

Comma delimited format used in spreadsheet applications
http://www.bom.gov.au/fwo/IDS60801/IDS60801.95823.axf

JavaScript Object Notation format (JSON) in row-major order
http://www.bom.gov.au/fwo/IDS60801/IDS60801.95823.json

Data quality

Most of these data are generated automatically and are frequently updated. Quality checks on data are not normally performed. It is possible for incorrect values to appear. Refer to information at About Latest Weather Observations and please check the disclaimer before using these data.